Time;durP1;ratioP1;P1;durP2;ratioP2;P2;SDS_P1;SDS_P2;PMS_P1;PMS_P2;Temp;Humidity;BMP_temperature;BMP_pressure;BME280_temperature;BME280_humidity;BME280_pressure;Samples;Min_cycle;Max_cycle;Signal;HPM_P1;HPM_P2
2021/03/14 00:00:36;;;;;;;93.30;68.38;;;17.50;58.40;;;;;;4936522;29;20063;-73
2021/03/14 00:03:03;;;;;;;46.17;33.17;;;17.50;58.50;;;;;;4954883;29;20035;-73
2021/03/14 00:05:30;;;;;;;39.13;27.80;;;17.40;58.40;;;;;;4954109;29;20489;-73
2021/03/14 00:07:57;;;;;;;36.05;26.17;;;17.40;58.50;;;;;;4954196;29;20492;-73
2021/03/14 00:10:23;;;;;;;37.00;26.80;;;17.40;58.50;;;;;;4953981;29;20035;-73
2021/03/14 00:12:50;;;;;;;63.47;45.80;;;17.40;58.40;;;;;;4954391;29;20027;-73
2021/03/14 00:15:19;;;;;;;80.63;57.17;;;17.40;58.30;;;;;;4937217;29;20032;-73
2021/03/14 00:17:45;;;;;;;60.25;44.17;;;17.40;58.50;;;;;;4947473;29;20027;-73
2021/03/14 00:20:12;;;;;;;47.03;34.85;;;17.40;58.50;;;;;;4953380;29;20432;-74
2021/03/14 00:22:38;;;;;;;43.22;30.70;;;17.40;58.50;;;;;;4954390;29;20027;-73
2021/03/14 00:25:06;;;;;;;259.30;181.13;;;17.30;58.50;;;;;;4930876;29;20402;-73
2021/03/14 00:27:32;;;;;;;84.53;58.92;;;17.30;58.50;;;;;;4953515;29;20114;-73
2021/03/14 00:29:58;;;;;;;56.10;41.15;;;17.30;58.60;;;;;;4936785;29;20476;-73
2021/03/14 00:32:24;;;;;;;48.75;34.85;;;17.30;58.50;;;;;;4954435;29;20028;-73
2021/03/14 00:34:51;;;;;;;44.03;31.63;;;17.20;58.50;;;;;;4950062;29;20042;-73
2021/03/14 00:37:17;;;;;;;42.70;30.92;;;17.20;58.70;;;;;;4936614;29;20035;-72
2021/03/14 00:39:43;;;;;;;54.35;38.67;;;17.20;58.70;;;;;;4954420;29;20031;-73
2021/03/14 00:42:10;;;;;;;83.97;60.05;;;17.20;58.60;;;;;;4954505;29;20331;-73
2021/03/14 00:44:36;;;;;;;56.78;40.63;;;17.20;58.70;;;;;;4953840;29;20083;-74
2021/03/14 00:47:02;;;;;;;46.88;34.83;;;17.10;58.70;;;;;;4948729;29;20035;-74
2021/03/14 00:49:27;;;;;;;40.58;30.85;;;17.10;58.70;;;;;;4942959;29;20063;-73
2021/03/14 00:51:53;;;;;;;46.72;33.88;;;17.10;58.80;;;;;;4954093;29;20066;-73
2021/03/14 00:54:19;;;;;;;86.97;63.45;;;17.10;58.80;;;;;;4954182;29;20120;-74
2021/03/14 00:56:45;;;;;;;97.57;71.45;;;17.10;58.80;;;;;;4953912;29;20055;-73
2021/03/14 00:59:11;;;;;;;62.17;46.05;;;17.10;58.80;;;;;;4954174;29;20094;-74
2021/03/14 01:01:37;;;;;;;48.22;36.45;;;17.00;58.80;;;;;;4954098;29;20035;-74
2021/03/14 01:04:04;;;;;;;46.78;33.42;;;17.00;58.70;;;;;;4954281;29;20036;-74
2021/03/14 01:06:29;;;;;;;42.67;32.20;;;17.00;58.80;;;;;;4955416;28;20019;-73
2021/03/14 01:08:55;;;;;;;43.17;31.15;;;17.00;58.70;;;;;;4930572;29;20036;-74
2021/03/14 01:11:21;;;;;;;46.42;32.42;;;17.00;58.80;;;;;;4938995;29;20119;-73
2021/03/14 01:13:47;;;;;;;40.22;28.50;;;17.00;58.70;;;;;;4949127;29;20031;-73
2021/03/14 01:16:14;;;;;;;41.08;28.25;;;17.00;59.20;;;;;;4957972;29;20114;-73
2021/03/14 01:18:40;;;;;;;37.15;26.58;;;17.00;58.70;;;;;;4957108;29;20478;-73
2021/03/14 01:21:07;;;;;;;40.35;27.70;;;17.00;58.70;;;;;;4956716;29;20039;-73
2021/03/14 01:23:32;;;;;;;34.83;25.00;;;17.00;58.90;;;;;;4957947;29;20037;-73
2021/03/14 01:25:58;;;;;;;32.50;23.25;;;16.90;59.00;;;;;;4957409;29;20031;-73
2021/03/14 01:28:24;;;;;;;31.45;21.65;;;17.00;59.10;;;;;;4957353;29;20028;-74
2021/03/14 01:30:50;;;;;;;29.30;21.13;;;16.90;59.10;;;;;;4957308;29;20085;-74
2021/03/14 01:33:16;;;;;;;29.95;21.67;;;16.90;59.10;;;;;;4957930;29;20034;-74
2021/03/14 01:35:42;;;;;;;30.13;20.50;;;16.90;59.20;;;;;;4957598;29;20533;-74
2021/03/14 01:38:08;;;;;;;27.35;19.58;;;16.90;59.10;;;;;;4952911;29;20372;-74
2021/03/14 01:40:35;;;;;;;26.35;19.15;;;16.90;59.10;;;;;;4948520;29;20507;-74
2021/03/14 01:43:02;;;;;;;26.55;18.42;;;16.90;59.10;;;;;;4939806;29;20035;-74
2021/03/14 01:45:28;;;;;;;32.55;17.92;;;16.90;59.10;;;;;;4957154;29;20390;-74
2021/03/14 01:47:54;;;;;;;25.35;17.73;;;16.90;59.10;;;;;;4957133;29;20038;-74
2021/03/14 01:50:23;;;;;;;24.75;17.13;;;16.90;59.00;;;;;;4956510;29;20477;-73
2021/03/14 01:52:51;;;;;;;76.00;46.10;;;16.90;58.90;;;;;;4956804;29;20114;-73
2021/03/14 01:55:19;;;;;;;45.03;29.10;;;16.90;58.60;;;;;;4957060;29;20039;-73
2021/03/14 01:57:46;;;;;;;375.05;204.40;;;16.90;58.60;;;;;;4937794;29;20160;-73
2021/03/14 02:00:16;;;;;;;152.10;85.95;;;17.00;58.60;;;;;;4919973;29;20123;-73
2021/03/14 02:02:43;;;;;;;80.80;49.35;;;17.00;58.60;;;;;;4926157;29;20480;-73
2021/03/14 02:05:11;;;;;;;61.85;38.35;;;16.90;58.50;;;;;;4937178;29;20047;-73
2021/03/14 02:07:39;;;;;;;59.30;37.90;;;16.90;58.50;;;;;;4937254;29;20110;-73
2021/03/14 02:10:07;;;;;;;61.63;38.10;;;17.00;58.50;;;;;;4936672;29;20032;-74
2021/03/14 02:12:38;;;;;;;53.28;34.78;;;17.00;58.30;;;;;;4937463;29;20055;-73
2021/03/14 02:15:07;;;;;;;52.92;33.20;;;17.00;58.30;;;;;;4937412;29;20028;-73
2021/03/14 02:17:35;;;;;;;45.88;29.50;;;17.00;58.30;;;;;;4937313;29;20495;-73
2021/03/14 02:20:14;;;;;;;45.85;27.58;;;17.00;58.30;;;;;;4936201;29;20036;-74
2021/03/14 02:22:46;;;;;;;42.13;25.85;;;17.00;58.30;;;;;;4937283;29;20387;-74
2021/03/14 02:25:24;;;;;;;36.45;23.33;;;16.90;58.20;;;;;;4935641;29;20028;-73
2021/03/14 02:27:50;;;;;;;36.58;22.00;;;16.90;58.30;;;;;;4918581;29;20383;-73
2021/03/14 02:30:16;;;;;;;37.25;22.08;;;16.90;58.90;;;;;;4935727;29;20024;-73
2021/03/14 02:32:43;;;;;;;34.17;21.02;;;16.90;58.40;;;;;;4929154;29;20492;-74
2021/03/14 02:35:10;;;;;;;34.63;21.67;;;16.90;58.40;;;;;;4936914;29;20028;-73
2021/03/14 02:37:37;;;;;;;30.77;19.50;;;16.90;58.40;;;;;;4937042;29;20062;-73
2021/03/14 02:40:06;;;;;;;28.17;18.08;;;16.80;58.40;;;;;;4936974;29;20064;-74
2021/03/14 02:42:36;;;;;;;29.05;17.88;;;16.90;58.50;;;;;;4930808;29;20028;-73
2021/03/14 02:45:04;;;;;;;28.15;17.60;;;16.80;58.50;;;;;;4936326;29;20027;-73
2021/03/14 02:47:30;;;;;;;29.77;18.17;;;16.80;58.50;;;;;;4936132;29;20115;-73
2021/03/14 02:49:58;;;;;;;34.63;20.40;;;16.80;58.50;;;;;;4921445;29;20047;-74
2021/03/14 02:52:25;;;;;;;29.90;18.70;;;16.80;58.60;;;;;;4933921;29;20345;-74
2021/03/14 02:54:52;;;;;;;28.92;17.60;;;16.80;58.80;;;;;;4934812;29;20495;-73
2021/03/14 02:57:22;;;;;;;26.17;16.60;;;16.80;58.80;;;;;;4952164;29;20122;-73
2021/03/14 02:59:51;;;;;;;27.90;16.08;;;16.80;59.00;;;;;;4928541;29;20072;-74
2021/03/14 03:02:18;;;;;;;24.52;14.65;;;16.70;58.80;;;;;;4943193;29;20419;-74
2021/03/14 03:04:45;;;;;;;25.85;15.18;;;16.70;58.80;;;;;;4948136;29;20113;-74
2021/03/14 03:07:14;;;;;;;23.65;14.80;;;16.80;58.90;;;;;;4943547;29;20517;-74
2021/03/14 03:09:42;;;;;;;22.95;14.18;;;16.70;58.80;;;;;;4936864;29;20024;-74
2021/03/14 03:12:08;;;;;;;22.90;14.18;;;16.70;58.80;;;;;;4947160;29;20514;-74
2021/03/14 03:14:36;;;;;;;22.52;13.20;;;16.70;58.70;;;;;;4937378;29;20058;-74
2021/03/14 03:17:02;;;;;;;30.48;18.25;;;16.70;58.60;;;;;;4946192;29;20436;-74
2021/03/14 03:19:28;;;;;;;20.92;13.32;;;16.70;58.60;;;;;;4938889;29;20054;-74
2021/03/14 03:21:54;;;;;;;19.50;11.85;;;16.70;58.40;;;;;;4947232;29;20046;-74
2021/03/14 03:24:20;;;;;;;20.67;11.85;;;16.80;58.30;;;;;;4936566;29;20032;-74
2021/03/14 03:26:48;;;;;;;18.70;10.88;;;16.80;58.30;;;;;;4937296;29;20066;-74
2021/03/14 03:29:15;;;;;;;20.15;11.13;;;16.80;58.40;;;;;;4940419;28;20035;-74
2021/03/14 03:31:41;;;;;;;19.13;10.68;;;16.70;58.30;;;;;;4939309;29;20446;-74
2021/03/14 03:34:08;;;;;;;23.13;12.93;;;16.70;58.30;;;;;;4946930;29;20035;-73
2021/03/14 03:36:35;;;;;;;16.95;10.50;;;16.80;58.50;;;;;;4944641;29;20036;-73
2021/03/14 03:39:04;;;;;;;17.90;10.60;;;16.80;58.10;;;;;;4944400;29;20039;-73
2021/03/14 03:41:32;;;;;;;16.42;9.68;;;16.90;58.10;;;;;;4946886;29;20043;-73
2021/03/14 03:44:00;;;;;;;16.13;8.85;;;16.80;58.00;;;;;;4938497;29;20522;-74
2021/03/14 03:46:27;;;;;;;15.18;8.48;;;16.90;57.90;;;;;;4949393;29;20106;-74
2021/03/14 03:48:57;;;;;;;14.75;8.00;;;16.90;58.00;;;;;;4936718;29;20023;-74
2021/03/14 03:51:27;;;;;;;50.92;37.10;;;16.90;58.00;;;;;;4940872;29;20075;-73
2021/03/14 03:53:56;;;;;;;19.40;12.75;;;16.80;58.00;;;;;;4945488;29;20427;-74
2021/03/14 03:56:24;;;;;;;67.57;47.65;;;16.80;58.10;;;;;;4908097;29;20476;-73
2021/03/14 03:58:52;;;;;;;32.00;22.33;;;16.70;58.10;;;;;;4945218;29;20114;-74
2021/03/14 04:01:19;;;;;;;24.67;16.98;;;16.80;58.30;;;;;;4953260;29;20506;-74
2021/03/14 04:03:47;;;;;;;23.85;14.98;;;16.70;58.10;;;;;;4954701;29;20028;-73
2021/03/14 04:06:15;;;;;;;21.73;15.07;;;16.70;58.20;;;;;;4954431;29;20035;-74
2021/03/14 04:08:46;;;;;;;21.15;13.93;;;16.70;58.30;;;;;;4954416;29;20042;-74
2021/03/14 04:11:19;;;;;;;19.88;13.48;;;16.70;58.30;;;;;;4937418;29;20031;-74
2021/03/14 04:13:50;;;;;;;19.55;12.82;;;16.80;58.10;;;;;;4937167;29;20372;-74
2021/03/14 04:16:16;;;;;;;18.17;11.50;;;16.80;57.90;;;;;;4954541;29;20614;-73
2021/03/14 04:18:44;;;;;;;18.67;10.98;;;16.90;57.90;;;;;;4954323;29;20042;-74
2021/03/14 04:21:15;;;;;;;16.95;9.98;;;16.80;57.90;;;;;;4937090;29;20550;-74
2021/03/14 04:23:44;;;;;;;16.80;9.67;;;16.80;57.90;;;;;;4954210;29;20073;-74
2021/03/14 04:26:11;;;;;;;15.95;10.00;;;16.80;57.90;;;;;;4954183;29;20027;-74
2021/03/14 04:28:37;;;;;;;17.90;8.68;;;16.80;57.90;;;;;;4954103;29;20027;-74
2021/03/14 04:31:04;;;;;;;16.35;9.02;;;16.80;57.90;;;;;;4944778;29;20055;-74
2021/03/14 04:33:31;;;;;;;15.98;8.50;;;16.80;58.00;;;;;;4952197;29;20582;-74
2021/03/14 04:35:59;;;;;;;16.15;8.32;;;16.70;58.10;;;;;;4954226;29;20061;-74
2021/03/14 04:38:27;;;;;;;13.35;7.57;;;16.70;58.10;;;;;;4954048;29;20107;-74
2021/03/14 04:40:57;;;;;;;13.80;7.50;;;16.70;58.10;;;;;;4922657;29;20030;-74
2021/03/14 04:43:24;;;;;;;13.23;7.57;;;16.70;58.20;;;;;;4957777;29;20565;-74
2021/03/14 04:45:51;;;;;;;14.50;7.60;;;16.70;58.20;;;;;;4958494;29;20073;-74
2021/03/14 04:48:21;;;;;;;12.38;6.82;;;16.70;58.20;;;;;;4947520;29;20443;-74
2021/03/14 04:50:49;;;;;;;12.82;6.70;;;16.70;58.20;;;;;;4956770;29;20324;-74
2021/03/14 04:53:15;;;;;;;11.52;6.20;;;16.60;58.20;;;;;;4957896;29;20027;-74
2021/03/14 04:55:43;;;;;;;13.57;6.88;;;16.60;58.10;;;;;;4940391;29;20122;-74
2021/03/14 04:58:13;;;;;;;13.02;6.75;;;16.60;58.10;;;;;;4940534;29;20557;-74
2021/03/14 05:00:41;;;;;;;13.30;6.95;;;16.60;58.40;;;;;;4943301;29;20068;-74
2021/03/14 05:03:13;;;;;;;12.35;6.32;;;16.70;58.10;;;;;;4958158;29;20023;-73
2021/03/14 05:05:42;;;;;;;14.52;5.72;;;16.70;58.00;;;;;;4958152;29;20402;-73
2021/03/14 05:08:10;;;;;;;11.20;6.07;;;16.70;57.90;;;;;;4940311;29;20106;-74
2021/03/14 05:10:38;;;;;;;11.27;5.70;;;16.70;57.90;;;;;;4957735;29;20030;-73
2021/03/14 05:13:05;;;;;;;10.82;5.28;;;16.70;57.90;;;;;;4940254;29;20099;-74
2021/03/14 05:15:31;;;;;;;11.85;5.50;;;16.70;57.90;;;;;;4940170;29;20386;-74
2021/03/14 05:17:58;;;;;;;12.50;4.78;;;16.70;58.00;;;;;;4957579;29;20046;-74
2021/03/14 05:20:26;;;;;;;9.18;4.90;;;16.60;57.90;;;;;;4944579;29;20055;-74
2021/03/14 05:22:56;;;;;;;9.70;4.45;;;16.60;58.00;;;;;;4935590;29;20059;-74
2021/03/14 05:25:22;;;;;;;9.05;4.40;;;16.60;58.10;;;;;;4940327;29;20442;-74
2021/03/14 05:27:52;;;;;;;8.30;4.25;;;16.60;58.20;;;;;;4956870;29;20023;-74
2021/03/14 05:30:22;;;;;;;9.85;4.90;;;16.60;58.10;;;;;;4957050;29;20087;-74
2021/03/14 05:32:50;;;;;;;9.77;4.13;;;16.50;58.10;;;;;;4957074;29;20051;-73
2021/03/14 05:35:17;;;;;;;7.60;3.90;;;16.50;58.10;;;;;;4957093;29;20114;-74
2021/03/14 05:37:43;;;;;;;9.18;4.07;;;16.50;58.20;;;;;;4956931;29;20055;-74
2021/03/14 05:40:09;;;;;;;7.82;4.05;;;16.50;58.20;;;;;;4956774;29;20067;-74
2021/03/14 05:42:36;;;;;;;8.50;4.20;;;16.50;58.30;;;;;;4957338;29;20382;-74
2021/03/14 05:45:03;;;;;;;8.82;3.97;;;16.50;58.30;;;;;;4957128;29;20035;-74
2021/03/14 05:47:30;;;;;;;7.00;3.55;;;16.40;58.30;;;;;;4939627;29;20031;-74
2021/03/14 05:49:56;;;;;;;9.07;4.13;;;16.50;58.40;;;;;;4956727;29;20027;-74
2021/03/14 05:52:23;;;;;;;8.98;3.35;;;16.50;58.40;;;;;;4955406;28;20502;-74
2021/03/14 05:54:51;;;;;;;7.00;3.63;;;16.50;58.40;;;;;;4957137;29;20027;-74
2021/03/14 05:57:18;;;;;;;8.77;3.42;;;16.50;58.40;;;;;;4956393;29;20055;-73
2021/03/14 05:59:50;;;;;;;7.63;3.47;;;16.40;58.40;;;;;;4956259;29;20054;-74
2021/03/14 06:02:20;;;;;;;7.40;3.35;;;16.40;58.40;;;;;;4939542;29;20501;-74
2021/03/14 06:04:47;;;;;;;8.02;3.30;;;16.40;58.40;;;;;;4939510;29;20513;-74
2021/03/14 06:07:14;;;;;;;7.80;3.42;;;16.40;58.40;;;;;;4956651;29;20098;-74
2021/03/14 06:09:40;;;;;;;7.55;3.30;;;16.40;58.50;;;;;;4938935;29;20035;-74
2021/03/14 06:12:13;;;;;;;8.10;3.50;;;16.40;58.50;;;;;;4954724;29;20039;-74
2021/03/14 06:14:39;;;;;;;8.00;3.45;;;16.40;58.50;;;;;;4945991;29;20122;-74
2021/03/14 06:17:06;;;;;;;9.70;3.33;;;16.40;58.60;;;;;;4937376;29;20035;-73
2021/03/14 06:19:32;;;;;;;7.60;2.70;;;16.40;58.50;;;;;;4949549;29;20028;-73
2021/03/14 06:22:19;;;;;;;11.85;6.40;;;16.40;58.60;;;;;;4937857;29;20020;-73
2021/03/14 06:24:46;;;;;;;12.48;5.35;;;16.40;58.50;;;;;;4937730;29;20158;-73
2021/03/14 06:27:27;;;;;;;12.00;3.72;;;16.40;58.80;;;;;;4937502;29;20027;-73
2021/03/14 06:29:52;;;;;;;9.63;3.17;;;16.40;58.70;;;;;;4937392;29;20036;-72
2021/03/14 06:32:18;;;;;;;9.60;3.47;;;16.40;58.70;;;;;;4954870;29;20087;-73
2021/03/14 06:34:44;;;;;;;9.38;3.22;;;16.50;58.60;;;;;;4956690;29;20023;-73
2021/03/14 06:37:15;;;;;;;8.82;3.20;;;16.50;58.60;;;;;;4956501;29;20028;-73
2021/03/14 06:39:42;;;;;;;9.70;3.00;;;16.50;58.50;;;;;;4956366;29;20062;-73
2021/03/14 06:42:08;;;;;;;9.18;2.90;;;16.70;58.50;;;;;;4956473;29;20023;-73
2021/03/14 06:44:36;;;;;;;7.57;2.83;;;16.80;57.80;;;;;;4956352;29;20082;-72
2021/03/14 06:47:04;;;;;;;11.18;2.88;;;16.90;57.50;;;;;;4956269;29;20019;-73
2021/03/14 06:49:35;;;;;;;9.70;2.95;;;17.00;57.30;;;;;;4956148;29;20019;-73
2021/03/14 06:52:02;;;;;;;10.38;3.10;;;17.20;57.20;;;;;;4939020;29;20401;-73
2021/03/14 06:54:30;;;;;;;11.95;2.80;;;17.20;56.70;;;;;;4956159;29;20031;-72
2021/03/14 06:57:12;;;;;;;8.52;2.92;;;17.30;56.60;;;;;;4955920;29;20158;-73
2021/03/14 06:59:43;;;;;;;9.20;3.05;;;17.30;56.60;;;;;;4956009;29;20027;-73
2021/03/14 07:02:12;;;;;;;9.40;2.85;;;17.30;56.70;;;;;;4956064;29;20019;-73
2021/03/14 07:04:40;;;;;;;7.75;2.63;;;17.30;56.80;;;;;;4954910;28;20086;-73
2021/03/14 07:07:15;;;;;;;10.50;2.30;;;17.30;56.80;;;;;;4952066;29;20412;-74
2021/03/14 07:09:42;;;;;;;13.63;2.60;;;17.30;56.80;;;;;;4936812;29;20467;-73
2021/03/14 07:12:19;;;;;;;9.57;2.75;;;17.30;56.80;;;;;;4936671;29;20032;-74
2021/03/14 07:14:46;;;;;;;8.70;2.30;;;17.30;56.80;;;;;;4936994;29;20028;-74
2021/03/14 07:17:24;;;;;;;7.63;2.45;;;17.30;56.90;;;;;;4936571;29;20387;-74
2021/03/14 07:19:55;;;;;;;8.57;2.45;;;17.20;57.00;;;;;;4936439;29;20434;-73
2021/03/14 07:22:21;;;;;;;8.02;2.22;;;17.20;57.10;;;;;;4936560;29;20031;-74
2021/03/14 07:24:46;;;;;;;8.90;2.40;;;17.20;57.10;;;;;;4936365;29;20495;-73
2021/03/14 07:27:19;;;;;;;6.93;2.22;;;17.20;57.30;;;;;;4936456;29;20030;-74
2021/03/14 07:29:47;;;;;;;5.13;1.85;;;17.20;57.20;;;;;;4936382;29;20110;-73
2021/03/14 07:32:13;;;;;;;9.23;2.70;;;17.20;57.10;;;;;;4936332;29;20027;-73
2021/03/14 07:34:40;;;;;;;9.35;2.22;;;17.20;57.10;;;;;;4936281;29;20351;-73
2021/03/14 07:37:06;;;;;;;7.15;2.10;;;17.20;57.10;;;;;;4936225;29;20035;-73
2021/03/14 07:39:32;;;;;;;7.32;2.10;;;17.20;57.00;;;;;;4946855;29;20114;-73
2021/03/14 07:42:00;;;;;;;9.75;2.15;;;17.20;57.00;;;;;;4955305;29;20102;-73
2021/03/14 07:44:26;;;;;;;6.63;1.98;;;17.20;57.00;;;;;;4954963;29;20028;-73
2021/03/14 07:46:53;;;;;;;7.05;2.28;;;17.20;57.00;;;;;;4954294;29;20467;-73
2021/03/14 07:49:21;;;;;;;5.82;1.73;;;17.10;57.00;;;;;;4936609;29;20032;-73
2021/03/14 07:52:06;;;;;;;7.03;2.15;;;17.10;57.00;;;;;;4952560;29;20106;-71
2021/03/14 07:54:50;;;;;;;9.55;2.00;;;17.20;57.00;;;;;;4953851;29;20106;-74
2021/03/14 07:57:21;;;;;;;7.88;1.98;;;17.20;57.10;;;;;;4954294;29;20519;-73
2021/03/14 07:59:47;;;;;;;9.97;2.13;;;17.20;57.00;;;;;;4943031;29;20028;-73
2021/03/14 08:02:19;;;;;;;23.45;3.97;;;17.20;56.90;;;;;;4922340;29;20023;-74
2021/03/14 08:04:53;;;;;;;23.15;15.65;;;17.30;57.30;;;;;;4921071;29;20073;-74
2021/03/14 08:07:36;;;;;;;11.27;6.63;;;17.30;57.00;;;;;;4948317;29;20098;-74
2021/03/14 08:10:06;;;;;;;14.77;10.90;;;17.40;56.50;;;;;;4935829;29;20035;-74
2021/03/14 08:12:39;;;;;;;19.70;17.60;;;17.40;56.40;;;;;;4946008;29;20031;-74
2021/03/14 08:15:21;;;;;;;16.83;14.93;;;17.40;55.90;;;;;;4945537;28;20019;-74
2021/03/14 08:17:48;;;;;;;13.88;10.27;;;17.50;55.70;;;;;;4954011;29;20023;-74
2021/03/14 08:20:15;;;;;;;11.93;9.75;;;17.50;55.30;;;;;;4932569;29;20382;-73
2021/03/14 08:22:43;;;;;;;13.02;8.05;;;17.50;55.40;;;;;;4949667;29;20356;-74
2021/03/14 08:25:22;;;;;;;14.23;7.35;;;17.50;55.50;;;;;;4949626;29;20043;-74
2021/03/14 08:27:58;;;;;;;9.98;6.93;;;17.50;55.60;;;;;;4939850;29;20102;-73
2021/03/14 08:30:31;;;;;;;9.65;6.35;;;17.40;55.70;;;;;;4940486;29;20015;-73
2021/03/14 08:33:26;;;;;;;10.63;6.45;;;17.40;55.90;;;;;;4953529;29;20074;-73
2021/03/14 08:35:59;;;;;;;12.73;6.35;;;17.40;55.90;;;;;;4952464;29;20067;-71
2021/03/14 08:42:34;;;;;;;19.92;6.68;;;17.50;55.90;;;;;;4954538;29;20062;-72
2021/03/14 08:45:23;;;;;;;12.25;5.68;;;17.50;56.20;;;;;;4954449;29;20071;-70
2021/03/14 08:47:50;;;;;;;13.27;5.90;;;17.50;56.50;;;;;;4948859;28;20483;-72
2021/03/14 08:50:17;;;;;;;15.18;5.78;;;17.50;56.50;;;;;;4950874;29;20110;-74
2021/03/14 08:52:43;;;;;;;20.48;7.38;;;17.40;55.70;;;;;;4930766;29;20027;-72
2021/03/14 08:55:10;;;;;;;64.78;25.08;;;17.60;55.90;;;;;;4947194;29;20027;-72
2021/03/14 08:57:36;;;;;;;33.95;11.88;;;17.60;56.00;;;;;;4945604;28;20058;-69
2021/03/14 09:00:06;;;;;;;33.17;9.50;;;17.70;56.10;;;;;;4947834;29;20031;-74
2021/03/14 09:02:35;;;;;;;31.13;9.75;;;17.60;56.80;;;;;;4953160;29;20125;-69
2021/03/14 09:05:09;;;;;;;33.53;11.57;;;17.70;56.90;;;;;;4950263;29;20053;-71
2021/03/14 09:07:36;;;;;;;22.58;9.63;;;17.70;56.60;;;;;;4952355;28;20099;-70
2021/03/14 09:10:16;;;;;;;26.08;10.25;;;17.50;56.90;;;;;;4951350;29;20047;-71
2021/03/14 09:12:43;;;;;;;34.35;12.80;;;17.50;57.20;;;;;;4953497;29;20030;-72
2021/03/14 09:15:11;;;;;;;31.70;13.40;;;17.50;57.40;;;;;;4951347;29;20035;-71
2021/03/14 09:17:38;;;;;;;31.65;13.02;;;17.60;56.90;;;;;;4951002;29;20035;-73
2021/03/14 09:20:05;;;;;;;42.22;15.70;;;17.50;56.90;;;;;;4950633;28;20031;-71
2021/03/14 09:22:33;;;;;;;75.28;39.50;;;17.60;57.00;;;;;;4952938;29;20023;-72
2021/03/14 09:24:58;;;;;;;60.08;25.42;;;17.60;58.10;;;;;;4952516;29;20102;-75
2021/03/14 09:27:30;;;;;;;55.38;26.10;;;17.60;57.50;;;;;;4956718;28;20498;-77
2021/03/14 09:29:57;;;;;;;61.17;27.35;;;17.60;57.80;;;;;;4942194;29;20031;-72
2021/03/14 09:32:34;;;;;;;53.97;25.73;;;17.60;57.90;;;;;;4961184;29;20027;-79
2021/03/14 09:35:21;;;;;;;48.47;22.45;;;17.60;57.90;;;;;;4958245;29;20083;-77
2021/03/14 09:37:52;;;;;;;46.50;22.30;;;17.70;57.90;;;;;;4940967;29;20489;-71
2021/03/14 09:40:29;;;;;;;42.63;20.95;;;17.80;57.90;;;;;;4971671;28;20083;-81
2021/03/14 09:43:25;;;;;;;39.58;19.98;;;17.80;57.40;;;;;;4953669;28;20028;-79
2021/03/14 09:45:59;;;;;;;41.97;19.35;;;17.90;57.20;;;;;;4933109;29;20406;-73
2021/03/14 09:48:50;;;;;;;40.30;19.35;;;18.00;57.10;;;;;;4955953;28;20089;-68
2021/03/14 09:51:17;;;;;;;;;;;18.10;57.10;;;;;;4953894;29;20031;-70
2021/03/14 09:53:42;;;;;;;41.90;17.25;;;18.20;57.00;;;;;;4956256;29;20358;-69
2021/03/14 09:56:13;;;;;;;35.50;15.55;;;18.40;56.20;;;;;;4948867;29;20061;-69
2021/03/14 09:58:39;;;;;;;39.85;15.77;;;18.60;55.80;;;;;;4938741;29;20106;-68
2021/03/14 10:01:10;;;;;;;35.67;15.27;;;18.70;55.70;;;;;;4974571;28;20103;-69
2021/03/14 10:03:36;;;;;;;43.30;16.17;;;18.70;55.60;;;;;;4940689;29;20032;-69
2021/03/14 10:09:26;;;;;;;33.53;14.75;;;18.90;54.80;;;;;;4957220;29;20082;-71
2021/03/14 10:11:53;;;;;;;43.90;13.10;;;19.00;54.50;;;;;;4956444;29;20026;-71
2021/03/14 10:14:20;;;;;;;37.53;13.73;;;18.90;54.50;;;;;;4956177;29;20513;-71
2021/03/14 10:16:50;;;;;;;27.20;11.80;;;18.80;55.00;;;;;;4952642;29;20035;-71
2021/03/14 10:19:17;;;;;;;37.65;11.77;;;18.60;55.50;;;;;;4936845;28;20486;-71
2021/03/14 10:21:46;;;;;;;28.35;10.70;;;18.50;55.40;;;;;;4955083;28;20394;-71
2021/03/14 10:24:17;;;;;;;30.27;12.13;;;18.50;55.80;;;;;;4955046;29;20023;-71
2021/03/14 10:27:02;;;;;;;24.27;11.18;;;18.40;56.10;;;;;;4939119;29;20062;-73
2021/03/14 10:29:40;;;;;;;32.58;10.63;;;18.40;56.40;;;;;;4950417;29;20107;-72
2021/03/14 10:32:23;;;;;;;35.75;11.27;;;18.40;56.60;;;;;;4956664;29;20111;-73
2021/03/14 10:34:53;;;;;;;28.65;11.10;;;18.40;56.70;;;;;;4956591;29;20035;-73
2021/03/14 10:37:30;;;;;;;37.53;10.60;;;18.50;56.80;;;;;;4956537;29;20377;-73
2021/03/14 10:40:03;;;;;;;28.35;10.27;;;18.50;56.70;;;;;;4956493;29;20489;-78
2021/03/14 10:42:49;;;;;;;27.58;9.93;;;18.60;56.40;;;;;;4939584;29;20098;-75
2021/03/14 10:45:24;;;;;;;26.95;9.70;;;18.70;56.00;;;;;;4938269;29;20533;-71
2021/03/14 10:48:01;;;;;;;31.73;9.68;;;18.70;55.90;;;;;;4945816;29;20024;-72
2021/03/14 10:50:32;;;;;;;22.88;9.75;;;18.80;55.80;;;;;;4936924;29;20030;-73
2021/03/14 10:53:17;;;;;;;23.13;8.52;;;18.70;56.00;;;;;;4954839;29;20348;-73
2021/03/14 10:55:44;;;;;;;24.98;9.00;;;18.60;56.10;;;;;;4956046;29;20039;-73
2021/03/14 10:58:15;;;;;;;22.58;10.32;;;18.50;56.40;;;;;;4956226;29;20034;-73
2021/03/14 11:00:54;;;;;;;26.33;13.13;;;18.50;56.60;;;;;;4955082;29;20473;-73
2021/03/14 11:03:32;;;;;;;25.52;10.70;;;18.40;56.80;;;;;;4951277;29;20036;-74
2021/03/14 11:06:19;;;;;;;19.95;10.32;;;18.30;57.00;;;;;;4949761;29;20100;-73
2021/03/14 11:08:51;;;;;;;26.17;12.40;;;18.30;57.10;;;;;;4953726;29;20058;-75
2021/03/14 11:11:18;;;;;;;41.03;15.38;;;18.40;57.40;;;;;;4945075;29;20035;-73
2021/03/14 11:13:43;;;;;;;27.33;16.35;;;18.40;57.50;;;;;;4954145;29;20427;-74
2021/03/14 11:16:10;;;;;;;24.92;14.45;;;18.30;57.00;;;;;;4955207;29;20038;-73
2021/03/14 11:18:36;;;;;;;22.45;12.52;;;18.30;57.10;;;;;;4947773;29;20027;-73
2021/03/14 11:21:03;;;;;;;21.55;11.32;;;18.30;57.00;;;;;;4953034;29;20089;-73
2021/03/14 11:23:29;;;;;;;17.77;10.68;;;18.40;56.70;;;;;;4954491;29;20067;-73
2021/03/14 11:25:55;;;;;;;19.17;9.68;;;18.50;56.20;;;;;;4954724;29;20514;-72
2021/03/14 11:28:21;;;;;;;22.52;10.57;;;18.60;55.80;;;;;;4954877;29;20061;-76
2021/03/14 11:30:47;;;;;;;18.30;10.00;;;18.80;55.80;;;;;;4926355;29;20031;-73
2021/03/14 11:33:13;;;;;;;20.02;10.95;;;18.90;55.30;;;;;;4954965;29;20031;-73
2021/03/14 11:35:39;;;;;;;20.77;9.85;;;18.90;55.30;;;;;;4955423;29;20035;-73
2021/03/14 11:38:04;;;;;;;17.27;9.32;;;19.00;55.20;;;;;;4950653;29;20039;-73
2021/03/14 11:40:31;;;;;;;16.35;8.88;;;19.00;55.10;;;;;;4954757;29;20160;-73
2021/03/14 11:42:57;;;;;;;16.83;8.55;;;19.10;54.80;;;;;;4950202;29;20031;-72
2021/03/14 11:45:23;;;;;;;16.02;8.80;;;19.50;54.10;;;;;;4954354;29;20038;-73
2021/03/14 11:47:49;;;;;;;15.55;7.85;;;19.50;53.90;;;;;;4954690;29;20363;-73
2021/03/14 11:50:16;;;;;;;15.50;7.82;;;19.50;53.80;;;;;;4934471;29;20451;-73
2021/03/14 11:52:46;;;;;;;13.95;7.38;;;19.60;53.30;;;;;;4954314;29;20061;-72
2021/03/14 11:55:12;;;;;;;18.05;9.13;;;19.60;52.90;;;;;;4954724;29;20127;-72
2021/03/14 11:57:38;;;;;;;17.65;7.40;;;19.60;54.00;;;;;;4954250;29;20078;-72
2021/03/14 12:00:05;;;;;;;16.35;8.68;;;19.70;53.40;;;;;;4954600;29;20513;-73
2021/03/14 12:02:31;;;;;;;14.10;8.15;;;19.80;53.50;;;;;;4932882;29;20457;-72
2021/03/14 12:04:57;;;;;;;16.30;7.72;;;19.80;53.20;;;;;;4936156;29;20031;-73
2021/03/14 12:07:24;;;;;;;18.73;10.35;;;19.80;52.90;;;;;;4953992;29;20027;-73
2021/03/14 12:09:51;;;;;;;18.38;8.75;;;19.90;52.60;;;;;;4954391;29;20102;-73
2021/03/14 12:12:17;;;;;;;13.98;8.27;;;19.70;53.30;;;;;;4937138;29;20035;-72
2021/03/14 12:14:43;;;;;;;17.40;8.88;;;19.40;54.00;;;;;;4953348;29;20027;-73
2021/03/14 12:17:09;;;;;;;15.20;7.22;;;19.20;54.60;;;;;;4954077;29;20031;-73
2021/03/14 12:19:34;;;;;;;15.25;7.90;;;19.10;54.90;;;;;;4954110;29;20399;-72
2021/03/14 12:22:01;;;;;;;23.45;7.82;;;19.00;55.20;;;;;;4954363;29;20035;-71
2021/03/14 12:24:27;;;;;;;12.55;6.75;;;19.00;55.20;;;;;;4954415;29;20115;-71
2021/03/14 12:26:52;;;;;;;11.80;6.10;;;18.90;55.30;;;;;;4954565;29;20106;-72
2021/03/14 12:29:19;;;;;;;11.70;5.72;;;18.80;55.50;;;;;;4937258;29;20115;-71
2021/03/14 12:31:44;;;;;;;13.65;6.20;;;18.80;55.50;;;;;;4935041;28;20470;-70
2021/03/14 12:34:10;;;;;;;14.15;6.43;;;18.80;55.60;;;;;;4933612;29;20042;-74
2021/03/14 12:36:36;;;;;;;11.40;5.20;;;18.90;55.70;;;;;;4921056;28;20027;-76
2021/03/14 12:41:56;;;;;;;14.48;5.80;;;19.10;55.60;;;;;;4491240;23;22088;-71
2021/03/14 12:44:22;;;;;;;10.85;4.88;;;19.50;54.50;;;;;;4939747;28;20767;-73
2021/03/14 12:46:47;;;;;;;14.57;5.18;;;19.80;53.40;;;;;;4946905;29;20047;-70
2021/03/14 12:49:13;;;;;;;11.80;4.68;;;20.10;52.40;;;;;;4935220;29;20033;-69
2021/03/14 12:51:39;;;;;;;12.25;4.63;;;20.30;51.90;;;;;;4950451;29;20023;-70